Time;durP1;ratioP1;P1;durP2;ratioP2;P2;SDS_P1;SDS_P2;PMS_P1;PMS_P2;Temp;Humidity;BMP_temperature;BMP_pressure;BME280_temperature;BME280_humidity;BME280_pressure;Samples;Min_cycle;Max_cycle;Signal;HPM_P1;HPM_P2
2022/01/18 00:00:52;;;;;;;9.85;2.78;;;;;;;18.49;42.25;99422.28;4234095;27;20039;-42
2022/01/18 00:02:54;;;;;;;9.20;2.90;;;;;;;18.51;42.00;99419.22;4230489;28;20678;-41
2022/01/18 00:04:55;;;;;;;21.52;3.63;;;;;;;18.51;41.77;99422.00;4232261;28;20088;-41
2022/01/18 00:06:57;;;;;;;5.80;2.90;;;;;;;18.52;41.80;99426.41;4224909;27;20490;-41
2022/01/18 00:08:58;;;;;;;12.20;3.08;;;;;;;18.51;41.72;99424.75;4237959;27;20072;-41
2022/01/18 00:11:00;;;;;;;10.27;2.78;;;;;;;18.52;41.96;99431.94;4249436;27;20084;-42
2022/01/18 00:15:30;;;;;;;17.05;3.45;;;;;;;18.49;42.09;99432.53;4249497;27;20466;-42
2022/01/18 00:17:41;;;;;;;8.95;3.58;;;;;;;18.48;41.83;99442.78;4249197;27;20035;-44
2022/01/18 00:19:53;;;;;;;9.20;2.83;;;;;;;18.49;41.71;99444.44;4238700;27;20092;-42
2022/01/18 00:24:03;;;;;;;6.15;2.70;;;;;;;18.47;42.26;99454.19;4245229;27;20024;-41
2022/01/18 00:26:06;;;;;;;10.68;2.95;;;;;;;18.46;41.95;99456.13;4236364;27;20035;-40
2022/01/18 00:28:07;;;;;;;10.10;3.22;;;;;;;18.46;42.05;99467.22;4248869;27;20048;-40
2022/01/18 00:30:34;;;;;;;10.32;3.63;;;;;;;18.43;42.31;99466.97;4249233;27;20035;-42
2022/01/18 00:33:17;;;;;;;8.25;2.65;;;;;;;18.45;42.24;99481.34;4249259;27;20035;-41
2022/01/18 00:34:58;;;;;;;9.90;2.83;;;;;;;18.44;42.32;99480.53;4245442;27;20084;-42
2022/01/18 00:39:11;;;;;;;12.05;3.85;;;;;;;18.40;42.03;99507.16;4248221;27;20432;-39
2022/01/18 00:41:15;;;;;;;6.18;2.35;;;;;;;18.41;41.85;99500.50;4248838;27;20100;-40
2022/01/18 00:43:16;;;;;;;5.30;2.25;;;;;;;18.39;41.94;99505.53;4247025;27;20031;-41
2022/01/18 00:45:20;;;;;;;6.22;2.15;;;;;;;18.40;41.82;99506.34;4248614;27;20542;-41
2022/01/18 00:47:22;;;;;;;6.30;2.60;;;;;;;18.40;41.79;99518.25;4244781;27;20040;-42
2022/01/18 00:49:24;;;;;;;7.72;2.50;;;;;;;18.39;42.12;99516.59;4231135;27;20107;-42
2022/01/18 00:51:25;;;;;;;10.15;2.58;;;;;;;18.38;42.11;99514.97;4231292;27;20035;-41
2022/01/18 00:53:31;;;;;;;4.05;2.42;;;;;;;18.37;41.95;99529.09;4241354;27;20023;-42
2022/01/18 00:55:36;;;;;;;;;;;;;;;18.34;41.90;99532.47;4244633;27;20043;-42
2022/01/18 00:57:37;;;;;;;7.93;2.22;;;;;;;18.38;41.71;99530.75;4248012;27;19980;-42
2022/01/18 00:59:40;;;;;;;6.78;2.25;;;;;;;18.38;41.44;99542.66;4247565;27;20389;-41
2022/01/18 01:01:42;;;;;;;4.22;2.63;;;;;;;18.36;41.91;99544.06;4245146;27;20069;-41
2022/01/18 01:03:44;;;;;;;4.55;2.40;;;;;;;18.32;41.77;99549.38;4223261;27;20459;-41
2022/01/18 01:05:48;;;;;;;8.70;2.17;;;;;;;18.32;42.07;99554.91;4228397;27;20040;-43
2022/01/18 01:07:50;;;;;;;4.20;2.57;;;;;;;18.33;41.87;99564.06;4234644;27;20024;-41
2022/01/18 01:09:55;;;;;;;4.97;2.35;;;;;;;18.33;41.59;99566.84;4240696;27;20329;-42
2022/01/18 01:12:00;;;;;;;7.18;1.90;;;;;;;18.32;41.61;99570.69;4240376;27;20035;-43
2022/01/18 01:14:06;;;;;;;;;;;;;;;18.31;41.64;99564.34;4215325;28;20432;-42
2022/01/18 01:33:03;;;;;;;5.43;2.30;;;;;;;18.31;41.84;99593.97;4230943;28;20080;-42
2022/01/18 01:35:06;;;;;;;7.70;2.58;;;;;;;18.31;41.68;99591.22;4230782;28;20027;-42
2022/01/18 01:42:05;;;;;;;3.85;2.05;;;;;;;18.29;42.09;99603.41;4214555;28;20105;-42
2022/01/18 01:44:20;;;;;;;5.10;1.83;;;;;;;18.36;41.85;99614.13;4216440;28;20035;-40
2022/01/18 01:46:22;;;;;;;4.45;1.95;;;;;;;18.34;41.92;99613.59;4229137;28;20128;-42
2022/01/18 01:48:25;;;;;;;6.70;2.40;;;;;;;18.37;41.93;99629.63;4229688;28;20167;-42
2022/01/18 01:50:40;;;;;;;5.18;1.90;;;;;;;18.36;42.07;99627.16;4230061;28;20043;-42
2022/01/18 01:52:41;;;;;;;3.15;1.73;;;;;;;18.27;41.71;99613.94;4213351;28;20106;-42
2022/01/18 01:54:46;;;;;;;4.95;2.08;;;;;;;18.35;41.64;99636.59;4213761;28;20102;-42
2022/01/18 01:56:50;;;;;;;4.00;1.98;;;;;;;18.32;42.00;99642.69;4216875;28;20096;-41
2022/01/18 01:58:55;;;;;;;3.95;1.67;;;;;;;18.36;41.51;99643.75;4224341;28;20031;-41
2022/01/18 02:01:03;;;;;;;5.88;1.67;;;;;;;18.36;41.70;99661.19;4222711;28;20023;-41
2022/01/18 02:03:04;;;;;;;4.07;2.38;;;;;;;18.36;41.96;99665.91;4237052;27;20130;-40
2022/01/18 02:05:07;;;;;;;4.70;2.20;;;;;;;18.36;41.80;99668.69;4230118;27;20040;-42
2022/01/18 02:07:08;;;;;;;4.15;2.08;;;;;;;18.29;41.53;99661.56;4247146;27;20042;-42
2022/01/18 02:09:13;;;;;;;3.47;1.90;;;;;;;18.34;41.52;99669.00;4225064;28;20073;-42
2022/01/18 02:11:15;;;;;;;8.05;2.00;;;;;;;18.32;41.41;99682.28;4235165;27;20031;-41
2022/01/18 02:13:17;;;;;;;4.68;1.63;;;;;;;18.34;41.97;99690.31;4243620;27;20031;-42
2022/01/18 02:15:19;;;;;;;2.90;1.70;;;;;;;18.33;41.57;99694.22;4246759;27;20107;-41
2022/01/18 02:22:25;;;;;;;2.83;1.98;;;;;;;18.34;41.78;99706.94;4144079;28;20527;-41
2022/01/18 02:24:26;;;;;;;3.95;2.15;;;;;;;18.33;41.66;99714.44;4154864;28;20038;-40
2022/01/18 02:26:28;;;;;;;2.38;1.48;;;;;;;18.33;41.65;99722.75;4217333;28;20413;-41
2022/01/18 02:28:33;;;;;;;3.13;1.13;;;;;;;18.34;41.33;99718.03;4222629;28;20502;-41
2022/01/18 02:30:34;;;;;;;2.63;1.65;;;;;;;18.32;41.72;99715.53;4240615;28;20039;-42
2022/01/18 02:32:36;;;;;;;3.38;1.63;;;;;;;18.32;41.33;99723.00;4246696;28;20027;-43
2022/01/18 02:34:38;;;;;;;2.78;1.52;;;;;;;18.26;41.33;99723.06;4242820;28;20036;-42
2022/01/18 02:36:40;;;;;;;2.60;1.52;;;;;;;18.31;41.49;99729.69;4242332;28;20451;-42
2022/01/18 02:38:41;;;;;;;3.78;1.60;;;;;;;18.31;41.57;99724.13;4239104;28;20102;-41
2022/01/18 02:40:43;;;;;;;2.42;1.50;;;;;;;18.31;41.70;99729.69;4222202;28;20080;-41
2022/01/18 02:42:57;;;;;;;5.07;1.45;;;;;;;18.29;41.46;99728.03;4245346;28;20043;-42
2022/01/18 02:44:58;;;;;;;2.63;1.65;;;;;;;18.31;41.17;99735.22;4237786;28;20043;-41
2022/01/18 02:47:00;;;;;;;3.85;1.60;;;;;;;18.29;41.19;99739.09;4244154;28;20080;-41
2022/01/18 02:49:03;;;;;;;3.10;1.45;;;;;;;18.27;41.34;99752.41;4235622;28;20392;-41
2022/01/18 02:51:05;;;;;;;2.08;1.27;;;;;;;18.28;41.21;99743.00;4241830;28;20099;-41
2022/01/18 02:53:07;;;;;;;2.25;1.60;;;;;;;18.26;41.41;99752.69;4236689;28;20035;-41
2022/01/18 02:55:08;;;;;;;2.55;1.33;;;;;;;18.27;41.40;99766.25;4233436;28;20047;-41
2022/01/18 02:57:15;;;;;;;2.72;1.45;;;;;;;18.24;41.24;99758.53;4239443;28;20085;-41
2022/01/18 02:59:46;;;;;;;2.03;1.40;;;;;;;18.24;41.55;99769.63;4243594;28;20043;-40
2022/01/18 03:04:10;;;;;;;2.95;1.10;;;;;;;18.28;41.29;99770.69;4245339;28;20120;-41
2022/01/18 03:06:11;;;;;;;2.72;1.80;;;;;;;18.27;41.14;99773.72;4233288;28;20036;-44
2022/01/18 03:08:15;;;;;;;2.25;1.30;;;;;;;18.28;41.02;99773.47;4236523;28;20039;-41
2022/01/18 03:10:17;;;;;;;2.10;1.40;;;;;;;18.26;41.38;99778.44;4230092;28;20412;-42
2022/01/18 03:12:18;;;;;;;5.60;1.52;;;;;;;18.27;41.28;99768.19;4217803;28;20052;-41
2022/01/18 03:14:20;;;;;;;2.58;1.60;;;;;;;18.26;41.11;99777.63;4247846;27;20056;-42
2022/01/18 03:16:21;;;;;;;1.92;1.33;;;;;;;18.24;40.92;99780.69;4236940;27;20859;-40
2022/01/18 03:18:25;;;;;;;2.00;1.33;;;;;;;18.24;41.18;99777.94;4237413;27;20035;-42
2022/01/18 03:20:29;;;;;;;3.83;1.60;;;;;;;18.25;40.95;99782.34;4244173;27;20043;-41
2022/01/18 03:22:31;;;;;;;3.40;1.35;;;;;;;18.24;40.93;99780.69;4248808;27;20043;-41
2022/01/18 03:25:02;;;;;;;1.77;1.30;;;;;;;18.24;40.74;99786.25;4236848;27;20032;-43
2022/01/18 03:29:14;;;;;;;2.33;1.23;;;;;;;18.24;40.82;99791.78;4236134;27;20091;-42
2022/01/18 03:31:16;;;;;;;1.63;1.00;;;;;;;18.23;40.82;99794.81;4245668;27;20035;-41
2022/01/18 03:33:19;;;;;;;1.75;1.30;;;;;;;18.23;41.16;99795.63;4241227;27;20039;-41
2022/01/18 03:35:23;;;;;;;1.17;1.08;;;;;;;18.23;40.75;99797.59;4231679;27;20499;-42
2022/01/18 03:37:24;;;;;;;1.52;1.20;;;;;;;18.22;40.65;99813.38;4230866;27;20044;-41
2022/01/18 03:39:26;;;;;;;2.35;1.20;;;;;;;18.23;40.98;99815.03;4238497;27;20039;-41
2022/01/18 03:41:28;;;;;;;3.08;1.48;;;;;;;18.24;41.09;99832.50;4240212;27;20096;-42
2022/01/18 03:43:30;;;;;;;1.67;1.30;;;;;;;18.24;40.67;99840.78;4236453;27;20032;-43
2022/01/18 03:45:44;;;;;;;5.70;1.20;;;;;;;18.02;41.01;99813.56;4243897;27;20043;-42
2022/01/18 03:47:50;;;;;;;1.67;1.27;;;;;;;18.21;40.74;99863.50;4249164;27;20084;-42
2022/01/18 03:49:51;;;;;;;;;;;;;;;18.20;41.07;99870.19;4233735;27;20605;-42
2022/01/18 03:51:52;;;;;;;3.92;1.45;;;;;;;18.26;40.56;99867.06;4244963;27;20457;-41
2022/01/18 03:53:54;;;;;;;1.42;0.93;;;;;;;18.25;40.63;99873.72;4227953;28;20108;-42
2022/01/18 03:55:56;;;;;;;1.88;1.40;;;;;;;18.25;40.42;99872.91;4217904;28;20031;-44
2022/01/18 03:58:00;;;;;;;11.38;1.35;;;;;;;18.24;40.66;99891.47;4215700;28;20073;-42
2022/01/18 04:00:06;;;;;;;6.77;1.50;;;;;;;18.25;40.79;99876.50;4230436;27;20040;-42
2022/01/18 04:02:07;;;;;;;3.47;1.40;;;;;;;18.27;40.41;99879.78;4222702;28;20280;-43
2022/01/18 04:04:09;;;;;;;2.10;1.10;;;;;;;18.29;40.42;99893.38;4231288;27;20080;-44
2022/01/18 04:06:10;;;;;;;1.95;1.25;;;;;;;18.25;40.05;99898.66;4230419;28;20558;-43
2022/01/18 04:08:12;;;;;;;2.30;1.17;;;;;;;18.27;40.07;99907.47;4230353;28;20096;-42
2022/01/18 04:10:14;;;;;;;2.20;1.25;;;;;;;18.27;40.14;99918.56;4228221;28;20043;-41
2022/01/18 04:12:16;;;;;;;4.10;1.65;;;;;;;18.26;40.24;99928.00;4231525;28;20408;-43
2022/01/18 04:14:20;;;;;;;4.03;1.80;;;;;;;18.22;39.95;99926.91;4229603;28;20065;-43
2022/01/18 04:16:22;;;;;;;5.18;1.35;;;;;;;18.25;40.07;99937.41;4225472;28;20093;-42
2022/01/18 04:27:27;;;;;;;3.03;1.38;;;;;;;18.25;39.52;99959.56;4228969;28;20100;-43
2022/01/18 04:29:28;;;;;;;3.80;1.55;;;;;;;18.22;39.63;99965.69;4229707;28;20039;-42
2022/01/18 04:31:33;;;;;;;2.00;1.23;;;;;;;18.15;39.66;99947.75;4226511;28;20389;-41
2022/01/18 04:33:36;;;;;;;3.83;2.00;;;;;;;18.21;39.90;99972.34;4226752;28;20044;-43
2022/01/18 04:35:38;;;;;;;2.47;1.80;;;;;;;18.21;39.63;99986.19;4226861;28;20280;-42
2022/01/18 04:37:39;;;;;;;2.65;1.58;;;;;;;18.20;39.59;99980.94;4226887;28;20047;-43
2022/01/18 04:39:42;;;;;;;1.80;1.60;;;;;;;18.11;39.63;99975.16;4231294;28;20097;-44
2022/01/18 04:41:46;;;;;;;2.08;1.40;;;;;;;18.18;39.60;99980.38;4231462;28;20073;-40
2022/01/18 04:48:36;;;;;;;2.17;1.60;;;;;;;18.13;39.61;100017.22;4232450;28;20073;-42
2022/01/18 04:50:38;;;;;;;4.28;1.70;;;;;;;18.14;39.53;100016.09;4231152;28;20040;-42
2022/01/18 04:52:39;;;;;;;2.00;1.42;;;;;;;18.16;39.26;100015.84;4232110;28;20043;-42
2022/01/18 04:54:45;;;;;;;2.50;1.77;;;;;;;18.15;39.64;100026.09;4231888;28;20406;-40
2022/01/18 04:58:48;;;;;;;2.28;1.80;;;;;;;18.14;39.00;100024.41;4230951;28;20081;-40
2022/01/18 05:00:52;;;;;;;2.83;1.40;;;;;;;18.10;39.26;100016.97;4227764;28;20097;-42
2022/01/18 05:02:53;;;;;;;4.10;1.88;;;;;;;18.12;39.32;100032.19;4230575;28;20105;-41
2022/01/18 05:04:55;;;;;;;3.85;1.80;;;;;;;18.09;39.16;100035.50;4228925;28;20409;-41
2022/01/18 05:07:01;;;;;;;5.57;1.52;;;;;;;18.11;39.25;100040.78;4225841;28;20093;-42
2022/01/18 05:09:07;;;;;;;2.75;1.85;;;;;;;18.10;38.95;100051.03;4227195;28;20044;-42
2022/01/18 05:11:15;;;;;;;2.08;1.67;;;;;;;18.08;38.83;100057.97;4231790;28;20457;-41
2022/01/18 05:15:48;;;;;;;2.72;1.83;;;;;;;18.07;39.19;100062.66;4249045;27;20088;-46
2022/01/18 05:20:25;;;;;;;2.63;1.70;;;;;;;18.05;38.84;100064.88;4232525;28;20084;-41
2022/01/18 05:24:41;;;;;;;2.90;1.92;;;;;;;18.04;38.65;100079.84;4215521;28;20093;-40
2022/01/18 05:26:42;;;;;;;3.95;1.90;;;;;;;18.03;38.79;100101.16;4213597;28;20036;-40
2022/01/18 05:28:44;;;;;;;3.00;1.52;;;;;;;18.02;39.07;100098.69;4196031;28;20045;-42
2022/01/18 05:30:46;;;;;;;2.05;1.67;;;;;;;17.99;38.93;100105.59;4213719;28;20036;-41
2022/01/18 05:32:47;;;;;;;2.50;1.75;;;;;;;17.98;38.51;100116.97;4214180;28;20039;-41
2022/01/18 05:34:49;;;;;;;2.72;1.70;;;;;;;17.99;38.51;100121.38;4214210;28;20036;-41
2022/01/18 05:36:50;;;;;;;2.60;1.45;;;;;;;17.99;38.49;100118.63;4213784;28;20074;-41
2022/01/18 05:38:52;;;;;;;2.70;1.65;;;;;;;17.95;38.88;100131.34;4213834;28;20074;-43
2022/01/18 05:40:53;;;;;;;3.58;1.77;;;;;;;17.97;38.85;100146.59;4214392;28;20032;-41
2022/01/18 05:42:56;;;;;;;3.80;1.80;;;;;;;17.97;38.52;100151.31;4213868;28;20036;-41
2022/01/18 05:44:58;;;;;;;1.80;1.40;;;;;;;17.95;38.78;100139.66;4213922;28;20089;-42
2022/01/18 05:46:59;;;;;;;3.47;1.88;;;;;;;17.92;38.44;100152.13;4213673;28;20040;-41
2022/01/18 05:49:02;;;;;;;3.00;1.42;;;;;;;17.93;38.67;100161.25;4212915;28;20117;-41
2022/01/18 05:51:04;;;;;;;1.98;1.45;;;;;;;17.93;38.46;100166.81;4213896;28;20425;-42
2022/01/18 05:53:05;;;;;;;2.17;1.70;;;;;;;17.88;38.49;100161.28;4213739;28;20036;-42
2022/01/18 05:55:09;;;;;;;3.13;1.70;;;;;;;17.91;38.61;100174.53;4213561;28;20116;-42
2022/01/18 05:57:11;;;;;;;3.47;1.67;;;;;;;17.90;38.59;100172.88;4214185;28;20373;-42
2022/01/18 05:59:21;;;;;;;2.13;1.70;;;;;;;17.91;38.65;100174.53;4214307;28;20044;-40
2022/01/18 06:01:27;;;;;;;2.90;1.67;;;;;;;17.90;38.40;100173.72;4214315;28;20432;-41
2022/01/18 06:03:38;;;;;;;2.65;1.70;;;;;;;17.89;38.19;100188.66;4232044;27;20040;-42
2022/01/18 06:08:00;;;;;;;3.58;1.80;;;;;;;17.88;38.50;100200.84;4231902;28;20061;-42
2022/01/18 06:10:02;;;;;;;2.03;1.48;;;;;;;17.89;38.45;100212.75;4229952;28;20036;-40
2022/01/18 06:12:04;;;;;;;1.65;1.50;;;;;;;17.87;38.15;100213.03;4230135;28;20104;-41
2022/01/18 06:14:05;;;;;;;2.58;1.70;;;;;;;17.86;38.34;100216.06;4230633;28;20461;-41
2022/01/18 06:16:07;;;;;;;1.85;1.55;;;;;;;17.83;38.14;100217.47;4229997;28;20363;-42
2022/01/18 06:18:08;;;;;;;1.92;1.45;;;;;;;17.84;38.14;100226.59;4230564;28;20383;-41
2022/01/18 06:20:10;;;;;;;2.20;1.50;;;;;;;17.84;38.03;100240.44;4230468;28;20024;-41
2022/01/18 06:22:11;;;;;;;2.28;1.42;;;;;;;17.84;38.09;100240.44;4229779;28;20043;-41
2022/01/18 06:24:13;;;;;;;1.98;1.40;;;;;;;17.83;37.97;100252.63;4230629;28;20039;-41
2022/01/18 06:26:16;;;;;;;2.15;1.50;;;;;;;17.81;37.90;100258.41;4229468;28;20507;-41
2022/01/18 06:28:17;;;;;;;2.22;1.40;;;;;;;17.81;37.91;100263.13;4229312;28;20036;-41
2022/01/18 06:30:19;;;;;;;2.05;1.40;;;;;;;17.81;37.81;100263.13;4228377;28;20036;-41
2022/01/18 06:32:21;;;;;;;2.10;1.50;;;;;;;17.79;38.24;100288.31;4229777;28;20115;-42
2022/01/18 06:34:22;;;;;;;2.53;1.60;;;;;;;17.80;38.21;100289.13;4229708;28;20039;-42
2022/01/18 06:36:23;;;;;;;1.92;1.23;;;;;;;17.76;37.75;100292.44;4229672;28;20093;-43
2022/01/18 06:38:25;;;;;;;2.75;1.65;;;;;;;17.77;38.15;100291.34;4228938;28;20089;-40
2022/01/18 06:40:27;;;;;;;1.95;1.30;;;;;;;17.78;37.94;100298.56;4229185;28;20040;-43
2022/01/18 06:42:28;;;;;;;1.38;1.27;;;;;;;17.77;38.13;100302.41;4207583;28;20040;-41
2022/01/18 06:44:30;;;;;;;2.55;1.60;;;;;;;17.70;37.98;100307.38;4229245;28;20047;-41
2022/01/18 06:46:34;;;;;;;1.65;1.25;;;;;;;17.71;37.62;100322.84;4230676;28;20031;-46
2022/01/18 06:48:35;;;;;;;1.45;1.33;;;;;;;17.75;38.13;100331.47;4229866;28;20047;-47
2022/01/18 06:50:37;;;;;;;2.28;1.48;;;;;;;17.74;37.72;100318.75;4232684;28;20039;-47
2022/01/18 06:52:39;;;;;;;2.67;1.30;;;;;;;17.73;38.10;100345.59;4232608;28;20089;-45
2022/01/18 06:54:41;;;;;;;1.85;1.15;;;;;;;17.71;37.79;100322.84;4233062;28;20199;-47
2022/01/18 06:56:46;;;;;;;1.88;1.30;;;;;;;17.72;37.81;100331.97;4233005;28;20035;-45
2022/01/18 06:58:47;;;;;;;2.67;1.30;;;;;;;17.69;37.69;100333.38;4221011;28;20048;-45
2022/01/18 07:00:49;;;;;;;2.65;1.55;;;;;;;17.72;37.85;100343.88;4230805;28;20488;-47
2022/01/18 07:02:50;;;;;;;1.95;1.38;;;;;;;17.71;37.49;100346.94;4229285;28;20991;-46
2022/01/18 07:04:52;;;;;;;1.80;1.33;;;;;;;17.70;37.62;100353.56;4250271;27;20039;-47
2022/01/18 07:06:53;;;;;;;1.77;1.27;;;;;;;17.70;37.75;100356.34;4250316;27;20068;-46
2022/01/18 07:08:54;;;;;;;2.35;1.80;;;;;;;17.68;37.82;100364.91;4215208;28;20040;-46
2022/01/18 07:10:57;;;;;;;1.45;1.23;;;;;;;17.68;37.64;100364.91;4216749;28;20074;-46
2022/01/18 07:13:00;;;;;;;2.85;1.48;;;;;;;17.67;37.78;100368.78;4216534;28;20405;-46
2022/01/18 07:15:03;;;;;;;1.90;1.20;;;;;;;17.66;37.36;100378.19;4215894;28;20445;-46
2022/01/18 07:17:05;;;;;;;1.67;1.20;;;;;;;17.66;37.40;100380.94;4215863;28;20472;-46
2022/01/18 07:19:07;;;;;;;1.13;0.95;;;;;;;17.65;37.64;100376.53;4216306;27;20040;-47
2022/01/18 07:21:11;;;;;;;1.63;1.38;;;;;;;17.63;37.73;100387.03;4249536;27;20047;-46
2022/01/18 07:23:13;;;;;;;1.75;1.15;;;;;;;17.64;37.43;100394.25;4249867;27;20138;-48
2022/01/18 07:25:17;;;;;;;2.40;1.05;;;;;;;17.64;37.36;100396.16;4249883;27;20042;-46
2022/01/18 07:27:21;;;;;;;2.22;1.23;;;;;;;17.63;37.62;100400.84;4249845;27;20432;-45
2022/01/18 07:29:23;;;;;;;1.75;1.10;;;;;;;17.63;37.35;100403.63;4234257;27;20036;-46
2022/01/18 07:31:25;;;;;;;1.52;1.33;;;;;;;17.63;37.37;100419.41;4230736;28;20051;-46
2022/01/18 07:33:27;;;;;;;1.60;1.00;;;;;;;17.62;37.71;100415.81;4223050;28;20036;-46
2022/01/18 07:35:28;;;;;;;2.60;1.13;;;;;;;17.61;37.45;100419.69;4220612;28;20044;-46
2022/01/18 07:37:30;;;;;;;1.20;1.10;;;;;;;17.61;37.40;100421.63;4234974;27;20019;-47
2022/01/18 07:39:31;;;;;;;2.30;1.55;;;;;;;17.61;37.48;100436.28;4249269;27;20091;-47
2022/01/18 07:41:35;;;;;;;2.10;1.50;;;;;;;17.58;37.36;100434.03;4220862;27;20105;-47
2022/01/18 07:43:38;;;;;;;1.13;1.02;;;;;;;17.58;37.33;100434.03;4215829;28;20036;-46
2022/01/18 07:45:39;;;;;;;1.40;1.10;;;;;;;17.54;37.55;100430.16;4218589;28;20379;-46
2022/01/18 07:47:44;;;;;;;1.38;0.90;;;;;;;17.57;37.26;100440.69;4232188;28;20096;-46
2022/01/18 07:49:47;;;;;;;1.80;1.23;;;;;;;17.55;37.55;100448.44;4232791;28;20081;-46
2022/01/18 07:51:48;;;;;;;1.52;1.08;;;;;;;17.57;37.30;100456.47;4232957;28;20555;-46
2022/01/18 07:53:50;;;;;;;2.28;1.30;;;;;;;17.57;37.58;100462.00;4232535;28;21126;-46
2022/01/18 07:55:52;;;;;;;1.40;1.10;;;;;;;17.56;37.16;100469.47;4232837;28;20440;-47
2022/01/18 07:57:56;;;;;;;1.70;1.08;;;;;;;17.55;37.17;100467.81;4232880;28;20116;-45
2022/01/18 07:59:58;;;;;;;2.25;0.82;;;;;;;17.51;37.28;100459.19;4232187;28;20047;-46
2022/01/18 08:01:59;;;;;;;1.17;1.02;;;;;;;17.54;37.14;100469.72;4231546;28;20142;-45
2022/01/18 08:04:01;;;;;;;1.17;0.95;;;;;;;17.53;37.17;100464.47;4239670;27;20847;-45
2022/01/18 08:06:02;;;;;;;1.20;1.02;;;;;;;17.53;37.36;100464.47;4249297;27;20436;-48
2022/01/18 08:08:05;;;;;;;2.00;1.30;;;;;;;17.50;37.40;100476.91;4248866;27;20051;-46
2022/01/18 08:10:08;;;;;;;1.90;1.17;;;;;;;17.51;37.50;100475.81;4249071;27;20039;-45
2022/01/18 08:12:10;;;;;;;1.45;1.00;;;;;;;17.52;37.44;100483.00;4249285;27;20555;-45
2022/01/18 08:14:13;;;;;;;1.30;1.20;;;;;;;17.51;37.61;100491.56;4249234;27;20436;-46
2022/01/18 08:18:31;;;;;;;1.33;0.90;;;;;;;17.51;37.24;100491.56;4231476;28;20420;-45
2022/01/18 08:20:32;;;;;;;1.35;1.20;;;;;;;17.50;37.49;100496.28;4231883;28;20035;-46
2022/01/18 08:22:34;;;;;;;1.20;0.80;;;;;;;17.49;37.05;100502.06;4228648;28;20093;-46
2022/01/18 08:24:36;;;;;;;1.67;1.10;;;;;;;17.49;37.43;100505.66;4231527;28;20043;-45
2022/01/18 08:26:38;;;;;;;1.92;1.20;;;;;;;17.48;37.46;100508.69;4231603;28;20092;-46
2022/01/18 08:28:40;;;;;;;1.05;0.90;;;;;;;17.46;37.45;100505.38;4231008;28;20035;-46
2022/01/18 08:30:41;;;;;;;1.17;1.00;;;;;;;17.48;37.05;100519.75;4231957;28;20092;-46
2022/01/18 08:32:44;;;;;;;0.77;0.70;;;;;;;17.46;37.23;100516.44;4227925;28;20386;-47
2022/01/18 08:34:46;;;;;;;1.25;1.10;;;;;;;17.48;37.18;100520.59;4231324;28;20062;-47
2022/01/18 08:36:47;;;;;;;0.90;0.80;;;;;;;17.44;36.96;100522.22;4232016;28;20073;-45
2022/01/18 08:38:49;;;;;;;1.48;1.00;;;;;;;17.44;37.18;100513.09;4230886;28;20069;-46
2022/01/18 08:40:50;;;;;;;1.73;1.05;;;;;;;17.46;36.92;100527.50;4242836;27;20092;-46
2022/01/18 08:42:52;;;;;;;0.93;0.80;;;;;;;17.43;36.91;100528.03;4248965;27;20031;-46
2022/01/18 08:44:54;;;;;;;1.25;0.90;;;;;;;17.44;36.91;100526.94;4248281;27;20381;-48
2022/01/18 08:46:56;;;;;;;1.35;1.00;;;;;;;17.39;37.23;100527.72;4248535;27;20039;-47
2022/01/18 08:48:57;;;;;;;2.10;1.00;;;;;;;17.42;36.93;100532.72;4248609;27;20039;-46
2022/01/18 08:51:00;;;;;;;1.55;0.88;;;;;;;17.39;37.05;100535.19;4248607;27;20043;-46
2022/01/18 08:53:01;;;;;;;1.48;1.08;;;;;;;17.41;37.24;100541.28;4248743;27;20068;-47
2022/01/18 08:55:03;;;;;;;1.20;1.00;;;;;;;17.41;37.22;100539.38;4248468;27;20099;-41
2022/01/18 08:57:04;;;;;;;1.10;1.00;;;;;;;17.40;37.06;100548.75;4248053;27;20459;-41
2022/01/18 08:59:08;;;;;;;1.30;0.80;;;;;;;17.40;36.83;100557.03;4247991;27;20039;-42
2022/01/18 09:01:10;;;;;;;1.25;0.88;;;;;;;17.38;37.13;100563.97;4248532;27;20540;-40
2022/01/18 09:03:11;;;;;;;1.00;0.90;;;;;;;17.38;36.80;100559.25;4248195;27;20035;-42
2022/01/18 09:05:13;;;;;;;1.35;0.80;;;;;;;17.38;36.93;100575.03;4248452;27;20039;-41
2022/01/18 09:07:17;;;;;;;1.52;1.00;;;;;;;17.36;37.00;100577.19;4247950;27;20412;-42
2022/01/18 09:09:19;;;;;;;1.38;1.00;;;;;;;17.35;36.87;100570.00;4247983;27;20043;-41
2022/01/18 09:11:23;;;;;;;1.08;0.82;;;;;;;17.36;37.09;100574.44;4247626;27;20035;-41
2022/01/18 09:13:25;;;;;;;1.45;0.80;;;;;;;17.35;37.18;100576.38;4247845;27;20087;-42
2022/01/18 09:15:26;;;;;;;1.23;0.82;;;;;;;17.36;37.02;100574.44;4248283;27;20039;-43
2022/01/18 09:17:28;;;;;;;1.20;0.90;;;;;;;17.35;36.92;100587.44;4248878;27;20481;-41
2022/01/18 09:19:30;;;;;;;0.88;0.80;;;;;;;17.33;36.96;100583.28;4248571;27;20416;-43
2022/01/18 09:21:33;;;;;;;1.00;0.80;;;;;;;17.34;36.92;100590.47;4248082;27;20039;-41
2022/01/18 09:23:36;;;;;;;1.30;1.08;;;;;;;17.34;36.76;100593.25;4248289;27;20091;-41
2022/01/18 09:25:37;;;;;;;1.17;0.88;;;;;;;17.30;36.84;100589.34;4248171;27;20043;-42
2022/01/18 09:27:39;;;;;;;0.98;0.88;;;;;;;17.32;37.00;100603.72;4248058;27;20068;-42
2022/01/18 09:29:40;;;;;;;0.90;0.85;;;;;;;17.31;37.00;100597.34;4247689;27;20423;-42
2022/01/18 09:31:42;;;;;;;1.27;1.15;;;;;;;17.32;37.00;100609.25;4248061;27;20100;-41
2022/01/18 09:33:43;;;;;;;1.05;0.93;;;;;;;17.30;37.22;100612.28;4248449;27;20176;-41
2022/01/18 09:35:45;;;;;;;0.95;0.77;;;;;;;17.20;37.07;100596.47;4247653;27;20039;-42
2022/01/18 09:37:48;;;;;;;1.42;0.95;;;;;;;17.21;36.91;100611.13;4247786;27;20096;-41
2022/01/18 09:39:52;;;;;;;0.98;0.88;;;;;;;17.28;37.01;100631.94;4244815;27;20100;-41
2022/01/18 09:41:58;;;;;;;0.88;0.77;;;;;;;17.28;37.03;100633.88;4230800;28;20136;-43
2022/01/18 09:43:59;;;;;;;0.93;0.63;;;;;;;17.26;36.66;100642.41;4228542;28;20040;-42
2022/01/18 09:46:01;;;;;;;0.90;0.60;;;;;;;17.27;37.13;100640.47;4230903;28;20043;-42
2022/01/18 09:48:03;;;;;;;1.25;0.80;;;;;;;17.25;36.76;100651.81;4230436;28;20112;-40
2022/01/18 09:50:08;;;;;;;0.82;0.73;;;;;;;17.26;37.03;100655.41;4230533;28;20105;-41
2022/01/18 09:52:09;;;;;;;1.48;1.02;;;;;;;17.25;37.03;100654.56;4230465;28;20180;-41
2022/01/18 09:54:11;;;;;;;0.90;0.77;;;;;;;17.24;36.97;100657.59;4231144;28;20027;-43
2022/01/18 09:56:16;;;;;;;1.10;0.82;;;;;;;17.22;37.10;100657.84;4231147;28;20028;-41
2022/01/18 09:58:17;;;;;;;1.23;0.70;;;;;;;17.22;36.74;100649.56;4231184;28;20023;-41
2022/01/18 10:00:20;;;;;;;1.00;0.80;;;;;;;17.22;36.70;100649.56;4230783;28;20050;-42
2022/01/18 10:02:25;;;;;;;1.00;0.77;;;;;;;17.19;36.84;100652.03;4230547;28;20036;-41
2022/01/18 10:04:31;;;;;;;1.00;0.60;;;;;;;17.22;36.62;100659.78;4230651;28;20512;-41
2022/01/18 10:06:33;;;;;;;1.15;1.02;;;;;;;17.18;36.88;100665.03;4231028;28;20028;-41
2022/01/18 10:08:38;;;;;;;0.65;0.65;;;;;;;17.19;36.81;100672.22;4230385;28;20140;-41
2022/01/18 10:10:44;;;;;;;1.10;0.70;;;;;;;17.20;37.03;100678.59;4230314;28;20040;-42
2022/01/18 10:12:56;;;;;;;0.80;0.70;;;;;;;17.20;37.05;100690.47;4212742;28;20109;-41
2022/01/18 10:15:00;;;;;;;0.75;0.63;;;;;;;17.20;36.72;100690.47;4230151;28;20039;-41
2022/01/18 10:17:02;;;;;;;0.70;0.70;;;;;;;17.19;36.88;100699.88;4230467;28;20093;-41
2022/01/18 10:19:05;;;;;;;0.70;0.70;;;;;;;17.19;36.97;100705.41;4229989;28;20036;-41
2022/01/18 10:21:07;;;;;;;0.82;0.70;;;;;;;17.19;36.98;100722.00;4230011;28;20104;-41
2022/01/18 10:23:20;;;;;;;1.25;0.68;;;;;;;17.18;36.65;100705.63;4230458;28;20092;-41
2022/01/18 10:25:27;;;;;;;1.15;0.80;;;;;;;17.15;36.71;100704.25;4229999;28;20043;-41
2022/01/18 10:27:36;;;;;;;0.98;0.70;;;;;;;17.15;36.95;100715.31;4231392;28;20405;-41
2022/01/18 10:29:43;;;;;;;0.77;0.65;;;;;;;17.14;36.90;100730.25;4230046;28;20089;-41
2022/01/18 10:34:14;;;;;;;0.80;0.80;;;;;;;17.10;36.91;100734.63;4230944;28;20428;-42
2022/01/18 10:36:16;;;;;;;0.90;0.80;;;;;;;17.15;36.83;100742.13;4230816;28;20020;-43
2022/01/18 10:38:18;;;;;;;0.90;0.70;;;;;;;17.12;36.63;100737.94;4230180;28;20043;-41
2022/01/18 10:40:20;;;;;;;1.13;0.70;;;;;;;17.14;36.49;100752.34;4236021;28;20543;-42
2022/01/18 10:42:31;;;;;;;1.10;0.80;;;;;;;17.13;36.75;100753.44;4247694;28;20470;-41
2022/01/18 10:44:35;;;;;;;0.60;0.60;;;;;;;17.12;36.54;100753.69;4246843;28;20039;-41